sensor_id;sensor_type;location;lat;lon;timestamp;noise_LAeq;noise_LA_min;noise_LA_max;noise_LA01;noise_LA95
76382;Laerm;65202;52.520;10.528;2023-04-01T00:01:14;44.50;34.27;68.57;;
76382;Laerm;65202;52.520;10.528;2023-04-01T00:03:44;45.14;33.66;69.03;;
76382;Laerm;65202;52.520;10.528;2023-04-01T00:06:15;43.81;34.24;66.34;;
76382;Laerm;65202;52.520;10.528;2023-04-01T00:08:43;44.60;34.94;68.77;;
76382;Laerm;65202;52.520;10.528;2023-04-01T00:11:11;44.34;34.44;67.22;;
76382;Laerm;65202;52.520;10.528;2023-04-01T00:13:39;43.94;34.71;64.67;;
76382;Laerm;65202;52.520;10.528;2023-04-01T00:16:07;43.87;34.31;66.01;;
76382;Laerm;65202;52.520;10.528;2023-04-01T00:18:47;43.22;34.42;66.14;;
76382;Laerm;65202;52.520;10.528;2023-04-01T00:21:16;45.17;34.02;68.97;;
76382;Laerm;65202;52.520;10.528;2023-04-01T00:23:43;45.55;34.18;67.02;;
76382;Laerm;65202;52.520;10.528;2023-04-01T00:26:11;44.10;34.00;67.21;;
76382;Laerm;65202;52.520;10.528;2023-04-01T00:28:40;44.22;33.59;66.66;;
76382;Laerm;65202;52.520;10.528;2023-04-01T00:31:10;44.06;33.78;68.81;;
76382;Laerm;65202;52.520;10.528;2023-04-01T00:33:40;43.85;34.44;63.05;;
76382;Laerm;65202;52.520;10.528;2023-04-01T00:36:20;42.99;33.69;61.97;;
76382;Laerm;65202;52.520;10.528;2023-04-01T00:38:50;44.20;34.22;67.04;;
76382;Laerm;65202;52.520;10.528;2023-04-01T00:41:20;44.20;34.29;68.86;;
76382;Laerm;65202;52.520;10.528;2023-04-01T00:43:51;45.46;34.56;67.80;;
76382;Laerm;65202;52.520;10.528;2023-04-01T00:46:19;44.55;33.96;69.12;;
76382;Laerm;65202;52.520;10.528;2023-04-01T00:48:52;44.80;34.10;66.03;;
76382;Laerm;65202;52.520;10.528;2023-04-01T00:51:27;45.05;33.95;65.48;;
76382;Laerm;65202;52.520;10.528;2023-04-01T00:53:58;44.63;33.99;69.18;;
76382;Laerm;65202;52.520;10.528;2023-04-01T00:56:45;44.74;33.78;68.23;;
76382;Laerm;65202;52.520;10.528;2023-04-01T00:59:22;43.90;33.49;66.16;;
76382;Laerm;65202;52.520;10.528;2023-04-01T01:01:51;43.81;33.86;65.83;;
76382;Laerm;65202;52.520;10.528;2023-04-01T01:04:27;43.73;34.05;68.96;;
76382;Laerm;65202;52.520;10.528;2023-04-01T01:10:20;42.62;34.39;64.44;;
76382;Laerm;65202;52.520;10.528;2023-04-01T01:13:18;42.38;33.75;67.61;;
76382;Laerm;65202;52.520;10.528;2023-04-01T01:15:58;43.33;33.95;66.25;;
76382;Laerm;65202;52.520;10.528;2023-04-01T01:18:43;43.69;33.85;69.51;;
76382;Laerm;65202;52.520;10.528;2023-04-01T01:26:55;42.62;33.28;66.20;;
76382;Laerm;65202;52.520;10.528;2023-04-01T01:29:54;42.85;33.70;66.89;;
76382;Laerm;65202;52.520;10.528;2023-04-01T01:35:37;42.89;34.12;65.61;;
76382;Laerm;65202;52.520;10.528;2023-04-01T01:38:14;43.12;33.59;66.91;;
76382;Laerm;65202;52.520;10.528;2023-04-01T01:40:48;43.29;33.45;66.04;;
76382;Laerm;65202;52.520;10.528;2023-04-01T01:43:24;43.60;33.81;65.54;;
76382;Laerm;65202;52.520;10.528;2023-04-01T01:45:57;43.48;33.52;67.28;;
76382;Laerm;65202;52.520;10.528;2023-04-01T01:48:29;44.32;33.63;65.46;;
76382;Laerm;65202;52.520;10.528;2023-04-01T01:50:58;43.59;33.81;65.25;;
76382;Laerm;65202;52.520;10.528;2023-04-01T01:53:26;43.41;33.34;65.00;;
76382;Laerm;65202;52.520;10.528;2023-04-01T01:55:54;43.64;33.50;68.53;;
76382;Laerm;65202;52.520;10.528;2023-04-01T01:58:29;43.32;33.53;64.47;;
76382;Laerm;65202;52.520;10.528;2023-04-01T02:01:02;43.50;33.47;66.49;;
76382;Laerm;65202;52.520;10.528;2023-04-01T02:03:36;43.24;34.19;65.56;;
76382;Laerm;65202;52.520;10.528;2023-04-01T02:06:11;43.82;33.97;68.80;;
76382;Laerm;65202;52.520;10.528;2023-04-01T02:08:50;43.27;34.33;67.84;;
76382;Laerm;65202;52.520;10.528;2023-04-01T02:11:31;42.85;33.64;66.02;;
76382;Laerm;65202;52.520;10.528;2023-04-01T02:14:15;43.85;34.11;66.35;;
76382;Laerm;65202;52.520;10.528;2023-04-01T02:17:07;42.87;33.75;65.72;;
76382;Laerm;65202;52.520;10.528;2023-04-01T02:19:52;41.79;33.73;61.42;;
76382;Laerm;65202;52.520;10.528;2023-04-01T02:22:29;42.86;34.29;65.56;;
76382;Laerm;65202;52.520;10.528;2023-04-01T02:25:07;43.13;33.52;67.21;;
76382;Laerm;65202;52.520;10.528;2023-04-01T02:27:40;43.01;34.38;63.09;;
76382;Laerm;65202;52.520;10.528;2023-04-01T02:30:12;43.63;34.49;65.28;;
76382;Laerm;65202;52.520;10.528;2023-04-01T02:32:43;43.71;32.97;68.67;;
76382;Laerm;65202;52.520;10.528;2023-04-01T02:35:16;48.68;33.47;67.09;;
76382;Laerm;65202;52.520;10.528;2023-04-01T02:37:48;43.55;34.12;64.77;;
76382;Laerm;65202;52.520;10.528;2023-04-01T02:40:20;42.93;33.85;67.70;;
76382;Laerm;65202;52.520;10.528;2023-04-01T02:42:48;44.26;34.20;67.77;;
76382;Laerm;65202;52.520;10.528;2023-04-01T02:45:16;43.64;33.23;66.95;;
76382;Laerm;65202;52.520;10.528;2023-04-01T02:47:44;43.26;33.76;61.93;;
76382;Laerm;65202;52.520;10.528;2023-04-01T02:50:11;43.39;34.48;65.90;;
76382;Laerm;65202;52.520;10.528;2023-04-01T02:52:38;43.67;34.20;64.25;;
76382;Laerm;65202;52.520;10.528;2023-04-01T02:55:07;44.61;34.73;68.06;;
76382;Laerm;65202;52.520;10.528;2023-04-01T02:57:34;44.15;34.70;69.35;;
76382;Laerm;65202;52.520;10.528;2023-04-01T03:00:02;44.52;34.48;68.97;;
76382;Laerm;65202;52.520;10.528;2023-04-01T03:02:30;50.10;34.57;70.07;;
76382;Laerm;65202;52.520;10.528;2023-04-01T03:04:58;44.70;35.32;68.01;;
76382;Laerm;65202;52.520;10.528;2023-04-01T03:07:26;43.80;34.78;67.13;;
76382;Laerm;65202;52.520;10.528;2023-04-01T03:09:54;44.33;34.38;69.25;;
76382;Laerm;65202;52.520;10.528;2023-04-01T03:12:21;45.80;37.28;65.39;;
76382;Laerm;65202;52.520;10.528;2023-04-01T03:14:49;47.00;38.00;69.39;;
76382;Laerm;65202;52.520;10.528;2023-04-01T03:17:17;49.04;37.66;69.88;;
76382;Laerm;65202;52.520;10.528;2023-04-01T03:19:45;48.43;36.76;68.81;;
76382;Laerm;65202;52.520;10.528;2023-04-01T03:22:14;47.90;36.13;68.35;;
76382;Laerm;65202;52.520;10.528;2023-04-01T03:24:42;48.49;35.75;70.15;;
76382;Laerm;65202;52.520;10.528;2023-04-01T03:27:10;47.20;36.39;67.62;;
76382;Laerm;65202;52.520;10.528;2023-04-01T03:29:38;47.07;35.26;70.77;;
76382;Laerm;65202;52.520;10.528;2023-04-01T03:32:06;46.01;36.16;66.25;;
76382;Laerm;65202;52.520;10.528;2023-04-01T03:34:33;45.58;35.22;69.14;;
76382;Laerm;65202;52.520;10.528;2023-04-01T03:37:01;45.78;34.90;66.48;;
76382;Laerm;65202;52.520;10.528;2023-04-01T03:39:28;45.52;35.27;68.95;;
76382;Laerm;65202;52.520;10.528;2023-04-01T03:41:55;45.29;35.35;68.82;;
76382;Laerm;65202;52.520;10.528;2023-04-01T03:44:22;45.31;35.13;65.34;;
76382;Laerm;65202;52.520;10.528;2023-04-01T03:46:50;46.42;35.26;67.28;;
76382;Laerm;65202;52.520;10.528;2023-04-01T03:49:18;46.39;35.87;68.97;;
76382;Laerm;65202;52.520;10.528;2023-04-01T03:51:46;45.98;35.72;65.30;;
76382;Laerm;65202;52.520;10.528;2023-04-01T03:54:14;46.67;35.91;67.58;;
76382;Laerm;65202;52.520;10.528;2023-04-01T03:56:42;47.70;35.60;69.77;;
76382;Laerm;65202;52.520;10.528;2023-04-01T03:59:10;48.31;35.76;70.14;;
76382;Laerm;65202;52.520;10.528;2023-04-01T04:01:37;48.47;37.71;65.95;;
76382;Laerm;65202;52.520;10.528;2023-04-01T04:04:05;48.75;37.12;68.95;;
76382;Laerm;65202;52.520;10.528;2023-04-01T04:06:33;49.09;37.65;68.04;;
76382;Laerm;65202;52.520;10.528;2023-04-01T04:09:01;49.39;38.65;68.70;;
76382;Laerm;65202;52.520;10.528;2023-04-01T04:11:30;48.51;38.56;66.21;;
76382;Laerm;65202;52.520;10.528;2023-04-01T04:13:59;49.66;37.88;67.47;;
76382;Laerm;65202;52.520;10.528;2023-04-01T04:16:26;50.20;38.28;68.80;;
76382;Laerm;65202;52.520;10.528;2023-04-01T04:18:54;49.31;38.81;68.79;;
76382;Laerm;65202;52.520;10.528;2023-04-01T04:21:21;48.44;39.08;67.97;;
76382;Laerm;65202;52.520;10.528;2023-04-01T04:23:50;50.18;39.12;68.06;;
76382;Laerm;65202;52.520;10.528;2023-04-01T04:26:19;49.46;38.68;68.78;;
76382;Laerm;65202;52.520;10.528;2023-04-01T04:28:47;50.22;38.68;69.27;;
76382;Laerm;65202;52.520;10.528;2023-04-01T04:31:24;50.46;37.23;66.93;;
76382;Laerm;65202;52.520;10.528;2023-04-01T04:33:52;49.78;38.01;70.10;;
76382;Laerm;65202;52.520;10.528;2023-04-01T04:36:21;49.60;38.29;66.63;;
76382;Laerm;65202;52.520;10.528;2023-04-01T04:38:48;49.65;37.77;68.30;;
76382;Laerm;65202;52.520;10.528;2023-04-01T04:41:18;52.21;38.18;67.96;;
76382;Laerm;65202;52.520;10.528;2023-04-01T04:43:54;50.01;38.98;67.86;;
76382;Laerm;65202;52.520;10.528;2023-04-01T04:46:22;49.91;38.16;68.41;;
76382;Laerm;65202;52.520;10.528;2023-04-01T04:48:50;48.00;36.25;68.26;;
76382;Laerm;65202;52.520;10.528;2023-04-01T04:51:19;50.47;36.28;70.10;;
76382;Laerm;65202;52.520;10.528;2023-04-01T04:53:48;48.38;37.18;70.55;;
76382;Laerm;65202;52.520;10.528;2023-04-01T04:56:20;50.31;38.76;69.41;;
76382;Laerm;65202;52.520;10.528;2023-04-01T04:58:48;48.40;38.29;68.51;;
76382;Laerm;65202;52.520;10.528;2023-04-01T05:01:16;51.87;38.00;71.19;;
76382;Laerm;65202;52.520;10.528;2023-04-01T05:03:44;51.21;38.17;67.84;;
76382;Laerm;65202;52.520;10.528;2023-04-01T05:06:15;51.15;38.65;69.46;;
76382;Laerm;65202;52.520;10.528;2023-04-01T05:08:44;48.82;39.13;68.20;;
76382;Laerm;65202;52.520;10.528;2023-04-01T05:11:16;51.72;38.96;70.13;;
76382;Laerm;65202;52.520;10.528;2023-04-01T05:13:43;49.02;37.18;68.14;;
76382;Laerm;65202;52.520;10.528;2023-04-01T05:16:16;49.97;38.89;68.90;;
76382;Laerm;65202;52.520;10.528;2023-04-01T05:18:43;49.14;38.71;68.82;;
76382;Laerm;65202;52.520;10.528;2023-04-01T05:21:13;49.06;38.21;68.30;;
76382;Laerm;65202;52.520;10.528;2023-04-01T05:23:41;47.85;38.61;69.06;;
76382;Laerm;65202;52.520;10.528;2023-04-01T05:26:12;51.69;36.66;68.05;;
76382;Laerm;65202;52.520;10.528;2023-04-01T05:28:41;47.40;37.49;67.21;;
76382;Laerm;65202;52.520;10.528;2023-04-01T05:31:09;50.02;36.78;69.22;;
76382;Laerm;65202;52.520;10.528;2023-04-01T05:33:36;49.72;37.28;67.32;;
76382;Laerm;65202;52.520;10.528;2023-04-01T05:36:13;47.58;37.03;69.25;;
76382;Laerm;65202;52.520;10.528;2023-04-01T05:38:41;47.78;39.21;68.08;;
76382;Laerm;65202;52.520;10.528;2023-04-01T05:41:09;48.56;37.66;68.79;;
76382;Laerm;65202;52.520;10.528;2023-04-01T05:43:38;47.61;37.95;67.82;;
76382;Laerm;65202;52.520;10.528;2023-04-01T05:46:06;47.13;37.63;68.31;;
76382;Laerm;65202;52.520;10.528;2023-04-01T05:48:34;53.70;38.05;71.27;;
76382;Laerm;65202;52.520;10.528;2023-04-01T05:51:03;47.83;38.32;70.31;;
76382;Laerm;65202;52.520;10.528;2023-04-01T05:53:31;47.46;38.61;68.29;;
76382;Laerm;65202;52.520;10.528;2023-04-01T05:56:03;48.56;38.13;68.51;;
76382;Laerm;65202;52.520;10.528;2023-04-01T05:58:30;58.53;37.67;77.09;;
76382;Laerm;65202;52.520;10.528;2023-04-01T06:01:07;56.94;39.41;78.11;;
76382;Laerm;65202;52.520;10.528;2023-04-01T06:03:41;59.98;38.32;81.81;;
76382;Laerm;65202;52.520;10.528;2023-04-01T06:06:24;46.77;37.44;68.28;;
76382;Laerm;65202;52.520;10.528;2023-04-01T06:08:53;52.43;37.55;66.27;;
76382;Laerm;65202;52.520;10.528;2023-04-01T06:11:56;47.48;38.85;70.64;;
76382;Laerm;65202;52.520;10.528;2023-04-01T06:14:54;50.27;38.94;68.63;;
76382;Laerm;65202;52.520;10.528;2023-04-01T06:21:27;51.63;38.19;72.19;;
76382;Laerm;65202;52.520;10.528;2023-04-01T06:33:22;47.06;38.28;66.05;;
76382;Laerm;65202;52.520;10.528;2023-04-01T06:35:43;47.89;38.78;64.28;;
76382;Laerm;65202;52.520;10.528;2023-04-01T06:38:52;50.96;38.38;64.67;;
76382;Laerm;65202;52.520;10.528;2023-04-01T06:44:41;47.47;38.30;65.21;;
76382;Laerm;65202;52.520;10.528;2023-04-01T06:50:24;51.51;38.83;66.47;;
76382;Laerm;65202;52.520;10.528;2023-04-01T06:53:10;50.31;38.74;68.24;;
76382;Laerm;65202;52.520;10.528;2023-04-01T06:55:58;48.85;39.74;65.55;;
76382;Laerm;65202;52.520;10.528;2023-04-01T06:58:42;50.11;39.22;65.77;;
76382;Laerm;65202;52.520;10.528;2023-04-01T07:01:37;48.98;38.51;64.92;;
76382;Laerm;65202;52.520;10.528;2023-04-01T07:04:14;45.92;38.70;64.06;;
76382;Laerm;65202;52.520;10.528;2023-04-01T07:06:49;48.74;37.87;67.46;;
76382;Laerm;65202;52.520;10.528;2023-04-01T07:09:26;48.89;38.30;65.32;;
76382;Laerm;65202;52.520;10.528;2023-04-01T07:12:01;48.78;37.81;66.39;;
76382;Laerm;65202;52.520;10.528;2023-04-01T07:14:35;51.81;38.46;64.75;;
76382;Laerm;65202;52.520;10.528;2023-04-01T07:17:19;45.94;38.40;59.74;;
76382;Laerm;65202;52.520;10.528;2023-04-01T07:20:02;52.05;39.71;66.70;;
76382;Laerm;65202;52.520;10.528;2023-04-01T07:22:45;51.00;38.29;66.91;;
76382;Laerm;65202;52.520;10.528;2023-04-01T07:25:59;51.20;38.38;64.76;;
76382;Laerm;65202;52.520;10.528;2023-04-01T07:28:11;47.39;38.59;58.24;;
76382;Laerm;65202;52.520;10.528;2023-04-01T07:46:33;51.28;37.47;66.80;;
76382;Laerm;65202;52.520;10.528;2023-04-01T07:48:46;49.09;36.91;62.89;;
76382;Laerm;65202;52.520;10.528;2023-04-01T07:51:50;47.92;37.45;65.64;;
76382;Laerm;65202;52.520;10.528;2023-04-01T07:54:36;51.56;38.70;65.45;;
76382;Laerm;65202;52.520;10.528;2023-04-01T08:00:20;52.36;37.31;65.27;;
76382;Laerm;65202;52.520;10.528;2023-04-01T08:03:20;61.46;44.06;70.05;;
76382;Laerm;65202;52.520;10.528;2023-04-01T08:05:59;61.42;58.33;75.71;;
76382;Laerm;65202;52.520;10.528;2023-04-01T08:09:02;59.59;37.34;68.18;;
76382;Laerm;65202;52.520;10.528;2023-04-01T08:15:11;61.52;38.31;66.01;;
76382;Laerm;65202;52.520;10.528;2023-04-01T08:17:54;50.15;36.27;68.33;;
76382;Laerm;65202;52.520;10.528;2023-04-01T08:23:27;49.05;35.91;77.51;;
76382;Laerm;65202;52.520;10.528;2023-04-01T08:26:02;48.88;36.35;65.82;;
76382;Laerm;65202;52.520;10.528;2023-04-01T08:28:41;48.01;36.31;67.01;;
76382;Laerm;65202;52.520;10.528;2023-04-01T08:31:37;50.15;35.72;67.17;;
76382;Laerm;65202;52.520;10.528;2023-04-01T08:34:18;46.30;35.99;62.72;;
76382;Laerm;65202;52.520;10.528;2023-04-01T08:36:55;46.90;35.79;62.75;;
76382;Laerm;65202;52.520;10.528;2023-04-01T08:39:37;46.27;35.77;59.84;;
76382;Laerm;65202;52.520;10.528;2023-04-01T08:52:49;45.96;36.28;61.51;;
76382;Laerm;65202;52.520;10.528;2023-04-01T08:56:03;48.26;36.50;62.68;;
76382;Laerm;65202;52.520;10.528;2023-04-01T09:01:58;46.83;37.23;58.79;;
76382;Laerm;65202;52.520;10.528;2023-04-01T09:05:05;49.82;37.28;67.38;;
76382;Laerm;65202;52.520;10.528;2023-04-01T09:08:09;53.83;37.06;70.53;;
76382;Laerm;65202;52.520;10.528;2023-04-01T09:20:16;47.40;40.25;63.60;;
76382;Laerm;65202;52.520;10.528;2023-04-01T09:23:15;45.15;37.53;57.27;;
76382;Laerm;65202;52.520;10.528;2023-04-01T09:29:34;58.06;37.03;82.39;;
76382;Laerm;65202;52.520;10.528;2023-04-01T09:35:24;63.60;60.53;71.68;;
76382;Laerm;65202;52.520;10.528;2023-04-01T09:41:32;60.41;37.52;80.77;;
76382;Laerm;65202;52.520;10.528;2023-04-01T09:47:16;63.46;60.41;75.51;;
76382;Laerm;65202;52.520;10.528;2023-04-01T09:50:16;59.70;39.09;66.21;;
76382;Laerm;65202;52.520;10.528;2023-04-01T09:56:21;61.21;36.58;70.49;;
76382;Laerm;65202;52.520;10.528;2023-04-01T10:08:45;48.45;37.41;63.14;;
76382;Laerm;65202;52.520;10.528;2023-04-01T10:14:56;60.03;36.57;76.58;;
76382;Laerm;65202;52.520;10.528;2023-04-01T10:27:09;63.80;61.19;76.92;;
76382;Laerm;65202;52.520;10.528;2023-04-01T10:33:27;56.68;36.89;78.97;;
76382;Laerm;65202;52.520;10.528;2023-04-01T10:39:32;49.43;37.57;66.54;;
76382;Laerm;65202;52.520;10.528;2023-04-01T10:42:20;43.66;37.17;65.91;;
76382;Laerm;65202;52.520;10.528;2023-04-01T10:45:37;43.75;35.98;60.11;;
76382;Laerm;65202;52.520;10.528;2023-04-01T10:49:02;48.34;35.22;63.55;;
76382;Laerm;65202;52.520;10.528;2023-04-01T10:52:22;45.87;34.26;62.38;;
76382;Laerm;65202;52.520;10.528;2023-04-01T10:55:28;48.98;36.55;71.02;;
76382;Laerm;65202;52.520;10.528;2023-04-01T11:16:47;46.77;35.01;74.17;;
76382;Laerm;65202;52.520;10.528;2023-04-01T11:19:38;44.79;35.11;59.53;;
76382;Laerm;65202;52.520;10.528;2023-04-01T11:22:33;49.34;36.17;68.28;;
76382;Laerm;65202;52.520;10.528;2023-04-01T11:31:55;43.47;35.09;55.54;;
76382;Laerm;65202;52.520;10.528;2023-04-01T11:34:58;45.88;35.09;61.11;;
76382;Laerm;65202;52.520;10.528;2023-04-01T11:38:22;46.28;35.24;65.09;;
76382;Laerm;65202;52.520;10.528;2023-04-01T11:41:19;46.31;36.51;60.49;;
76382;Laerm;65202;52.520;10.528;2023-04-01T11:44:18;49.34;35.03;77.71;;
76382;Laerm;65202;52.520;10.528;2023-04-01T11:47:49;48.09;35.24;61.24;;
76382;Laerm;65202;52.520;10.528;2023-04-01T11:50:20;49.92;36.52;65.97;;
76382;Laerm;65202;52.520;10.528;2023-04-01T11:58:48;48.04;35.20;64.40;;
76382;Laerm;65202;52.520;10.528;2023-04-01T12:02:16;49.07;35.62;69.31;;
76382;Laerm;65202;52.520;10.528;2023-04-01T12:04:54;48.61;35.82;63.66;;
76382;Laerm;65202;52.520;10.528;2023-04-01T12:07:49;48.09;36.03;61.47;;
76382;Laerm;65202;52.520;10.528;2023-04-01T12:13:29;54.47;36.90;71.07;;
76382;Laerm;65202;52.520;10.528;2023-04-01T12:18:59;50.50;36.26;65.40;;
76382;Laerm;65202;52.520;10.528;2023-04-01T12:21:45;48.68;36.03;63.46;;
76382;Laerm;65202;52.520;10.528;2023-04-01T12:36:18;45.02;37.04;55.82;;
76382;Laerm;65202;52.520;10.528;2023-04-01T12:44:23;49.05;36.66;65.95;;
76382;Laerm;65202;52.520;10.528;2023-04-01T12:50:50;45.29;36.75;55.83;;
76382;Laerm;65202;52.520;10.528;2023-04-01T12:54:20;53.13;36.91;75.23;;
76382;Laerm;65202;52.520;10.528;2023-04-01T13:03:16;51.70;36.93;68.78;;
76382;Laerm;65202;52.520;10.528;2023-04-01T13:09:36;50.11;37.54;68.11;;
76382;Laerm;65202;52.520;10.528;2023-04-01T13:15:26;48.46;37.52;60.02;;
76382;Laerm;65202;52.520;10.528;2023-04-01T13:18:45;47.58;36.25;64.60;;
76382;Laerm;65202;52.520;10.528;2023-04-01T13:27:33;49.40;37.43;66.53;;
76382;Laerm;65202;52.520;10.528;2023-04-01T13:30:30;43.99;36.77;55.85;;
76382;Laerm;65202;52.520;10.528;2023-04-01T13:33:20;45.67;36.91;58.58;;
76382;Laerm;65202;52.520;10.528;2023-04-01T13:44:49;46.34;39.37;55.81;;
76382;Laerm;65202;52.520;10.528;2023-04-01T13:51:07;44.62;37.73;56.28;;
76382;Laerm;65202;52.520;10.528;2023-04-01T13:53:59;49.66;37.57;65.08;;
76382;Laerm;65202;52.520;10.528;2023-04-01T13:56:54;49.20;38.20;66.26;;
76382;Laerm;65202;52.520;10.528;2023-04-01T14:05:56;48.61;38.57;64.47;;
76382;Laerm;65202;52.520;10.528;2023-04-01T14:09:05;43.83;37.61;56.54;;
76382;Laerm;65202;52.520;10.528;2023-04-01T14:12:04;45.81;38.07;62.01;;
76382;Laerm;65202;52.520;10.528;2023-04-01T14:20:53;48.93;39.18;65.98;;
76382;Laerm;65202;52.520;10.528;2023-04-01T14:30:27;47.37;36.29;65.61;;
76382;Laerm;65202;52.520;10.528;2023-04-01T14:33:22;47.55;38.93;65.50;;
76382;Laerm;65202;52.520;10.528;2023-04-01T14:36:18;49.31;38.31;64.03;;
76382;Laerm;65202;52.520;10.528;2023-04-01T14:50:49;47.81;38.01;66.45;;
76382;Laerm;65202;52.520;10.528;2023-04-01T14:53:32;46.56;37.07;63.94;;
76382;Laerm;65202;52.520;10.528;2023-04-01T14:56:03;41.48;35.75;57.03;;
76382;Laerm;65202;52.520;10.528;2023-04-01T14:58:50;42.84;36.49;55.85;;
76382;Laerm;65202;52.520;10.528;2023-04-01T15:10:57;48.51;37.47;68.28;;
76382;Laerm;65202;52.520;10.528;2023-04-01T15:16:15;50.71;36.94;66.71;;
76382;Laerm;65202;52.520;10.528;2023-04-01T15:19:28;47.89;37.01;70.07;;
76382;Laerm;65202;52.520;10.528;2023-04-01T15:25:43;42.66;37.05;58.07;;
76382;Laerm;65202;52.520;10.528;2023-04-01T15:28:56;49.57;37.29;69.01;;
76382;Laerm;65202;52.520;10.528;2023-04-01T15:32:00;43.81;37.46;58.45;;
76382;Laerm;65202;52.520;10.528;2023-04-01T15:40:47;44.74;38.60;57.97;;
76382;Laerm;65202;52.520;10.528;2023-04-01T15:43:40;49.94;37.49;68.67;;
76382;Laerm;65202;52.520;10.528;2023-04-01T15:52:09;51.52;37.86;67.75;;
76382;Laerm;65202;52.520;10.528;2023-04-01T15:57:36;47.89;39.18;65.23;;
76382;Laerm;65202;52.520;10.528;2023-04-01T16:00:26;46.42;37.88;67.24;;
76382;Laerm;65202;52.520;10.528;2023-04-01T16:03:31;42.83;37.41;61.59;;
76382;Laerm;65202;52.520;10.528;2023-04-01T16:06:39;48.18;38.52;62.56;;
76382;Laerm;65202;52.520;10.528;2023-04-01T16:12:19;42.89;37.41;54.44;;
76382;Laerm;65202;52.520;10.528;2023-04-01T16:15:29;46.98;37.75;64.54;;
76382;Laerm;65202;52.520;10.528;2023-04-01T16:21:24;52.02;38.61;72.26;;
76382;Laerm;65202;52.520;10.528;2023-04-01T16:24:00;47.80;38.25;65.67;;
76382;Laerm;65202;52.520;10.528;2023-04-01T16:26:39;48.21;37.71;64.07;;
76382;Laerm;65202;52.520;10.528;2023-04-01T16:35:25;43.95;38.94;59.98;;
76382;Laerm;65202;52.520;10.528;2023-04-01T16:38:13;49.01;37.92;67.75;;
76382;Laerm;65202;52.520;10.528;2023-04-01T16:41:11;47.03;37.82;63.76;;
76382;Laerm;65202;52.520;10.528;2023-04-01T16:43:48;48.54;37.13;66.61;;
76382;Laerm;65202;52.520;10.528;2023-04-01T16:54:31;45.97;37.14;63.50;;
76382;Laerm;65202;52.520;10.528;2023-04-01T16:59:54;41.98;36.53;58.81;;
76382;Laerm;65202;52.520;10.528;2023-04-01T17:02:35;41.52;36.43;67.61;;
76382;Laerm;65202;52.520;10.528;2023-04-01T17:05:11;48.34;36.71;65.97;;
76382;Laerm;65202;52.520;10.528;2023-04-01T17:10:49;44.82;36.20;61.84;;
76382;Laerm;65202;52.520;10.528;2023-04-01T17:14:07;42.33;36.82;62.49;;
76382;Laerm;65202;52.520;10.528;2023-04-01T17:16:54;40.13;35.67;56.19;;
76382;Laerm;65202;52.520;10.528;2023-04-01T17:19:51;39.82;35.81;57.76;;
76382;Laerm;65202;52.520;10.528;2023-04-01T17:25:46;42.63;36.98;61.35;;
76382;Laerm;65202;52.520;10.528;2023-04-01T17:28:27;43.31;35.65;60.07;;
76382;Laerm;65202;52.520;10.528;2023-04-01T17:34:46;45.61;36.26;61.93;;
76382;Laerm;65202;52.520;10.528;2023-04-01T17:37:50;43.21;36.30;61.84;;
76382;Laerm;65202;52.520;10.528;2023-04-01T17:40:41;44.07;36.98;60.84;;
76382;Laerm;65202;52.520;10.528;2023-04-01T17:58:17;42.45;36.90;64.58;;
76382;Laerm;65202;52.520;10.528;2023-04-01T18:01:21;43.92;36.70;62.47;;
76382;Laerm;65202;52.520;10.528;2023-04-01T18:04:43;48.58;36.67;71.68;;
76382;Laerm;65202;52.520;10.528;2023-04-01T18:07:46;43.13;37.40;61.34;;
76382;Laerm;65202;52.520;10.528;2023-04-01T18:10:33;48.89;36.36;67.42;;
76382;Laerm;65202;52.520;10.528;2023-04-01T18:13:44;43.68;35.98;55.64;;
76382;Laerm;65202;52.520;10.528;2023-04-01T18:22:23;39.31;35.33;48.27;;
76382;Laerm;65202;52.520;10.528;2023-04-01T18:25:22;45.33;35.11;63.28;;
76382;Laerm;65202;52.520;10.528;2023-04-01T18:28:18;41.16;36.04;63.56;;
76382;Laerm;65202;52.520;10.528;2023-04-01T18:31:15;39.89;36.11;53.35;;
76382;Laerm;65202;52.520;10.528;2023-04-01T18:33:59;49.17;35.98;64.14;;
76382;Laerm;65202;52.520;10.528;2023-04-01T18:37:01;40.89;35.78;58.74;;
76382;Laerm;65202;52.520;10.528;2023-04-01T18:39:42;50.50;37.12;67.71;;
76382;Laerm;65202;52.520;10.528;2023-04-01T18:42:46;42.01;36.57;57.59;;
76382;Laerm;65202;52.520;10.528;2023-04-01T18:45:27;47.14;36.40;66.01;;
76382;Laerm;65202;52.520;10.528;2023-04-01T18:51:34;47.48;35.90;63.16;;
76382;Laerm;65202;52.520;10.528;2023-04-01T18:54:33;41.82;36.84;55.28;;
76382;Laerm;65202;52.520;10.528;2023-04-01T18:57:16;47.76;37.07;68.49;;
76382;Laerm;65202;52.520;10.528;2023-04-01T19:00:37;40.66;36.31;64.20;;
76382;Laerm;65202;52.520;10.528;2023-04-01T19:03:26;41.14;36.80;55.96;;
76382;Laerm;65202;52.520;10.528;2023-04-01T19:06:14;41.30;35.96;59.57;;
76382;Laerm;65202;52.520;10.528;2023-04-01T19:08:44;43.23;35.81;58.70;;
76382;Laerm;65202;52.520;10.528;2023-04-01T19:11:43;44.19;36.23;59.07;;
76382;Laerm;65202;52.520;10.528;2023-04-01T19:14:52;46.45;35.48;66.06;;
76382;Laerm;65202;52.520;10.528;2023-04-01T19:18:02;42.05;36.11;56.16;;
76382;Laerm;65202;52.520;10.528;2023-04-01T19:20:55;46.69;36.21;66.95;;
76382;Laerm;65202;52.520;10.528;2023-04-01T19:30:27;41.27;35.88;59.59;;
76382;Laerm;65202;52.520;10.528;2023-04-01T19:33:58;40.07;35.74;50.90;;
76382;Laerm;65202;52.520;10.528;2023-04-01T19:37:24;43.79;35.26;60.13;;
76382;Laerm;65202;52.520;10.528;2023-04-01T19:40:14;39.88;35.60;49.70;;
76382;Laerm;65202;52.520;10.528;2023-04-01T19:42:57;43.73;36.37;59.19;;
76382;Laerm;65202;52.520;10.528;2023-04-01T19:45:56;41.82;36.47;48.62;;
76382;Laerm;65202;52.520;10.528;2023-04-01T19:48:42;41.36;36.37;53.71;;
76382;Laerm;65202;52.520;10.528;2023-04-01T19:51:28;44.46;37.93;57.29;;
76382;Laerm;65202;52.520;10.528;2023-04-01T19:57:17;50.26;36.90;70.45;;
76382;Laerm;65202;52.520;10.528;2023-04-01T20:00:28;42.20;37.31;52.62;;
76382;Laerm;65202;52.520;10.528;2023-04-01T20:03:15;43.35;38.10;69.81;;
76382;Laerm;65202;52.520;10.528;2023-04-01T20:11:44;41.51;37.30;50.17;;
76382;Laerm;65202;52.520;10.528;2023-04-01T20:17:14;44.29;38.51;53.84;;
76382;Laerm;65202;52.520;10.528;2023-04-01T20:20:03;46.99;38.48;67.42;;
76382;Laerm;65202;52.520;10.528;2023-04-01T20:25:22;40.85;37.12;46.33;;
76382;Laerm;65202;52.520;10.528;2023-04-01T20:27:54;42.37;37.30;47.51;;
76382;Laerm;65202;52.520;10.528;2023-04-01T20:36:24;40.07;35.18;54.49;;
76382;Laerm;65202;52.520;10.528;2023-04-01T20:45:17;40.63;35.50;47.83;;
76382;Laerm;65202;52.520;10.528;2023-04-01T20:48:12;41.37;37.44;50.88;;
76382;Laerm;65202;52.520;10.528;2023-04-01T20:51:04;42.06;37.60;58.99;;
76382;Laerm;65202;52.520;10.528;2023-04-01T20:57:06;40.53;36.60;46.35;;
76382;Laerm;65202;52.520;10.528;2023-04-01T21:06:15;40.60;36.37;46.09;;
76382;Laerm;65202;52.520;10.528;2023-04-01T21:09:15;41.19;36.31;50.48;;